createdAt,value
2019-04-07T00:01:43.490Z,94.95
2019-04-07T00:04:12.113Z,84.92
2019-04-07T00:06:40.431Z,88.82
2019-04-07T00:09:08.655Z,98.00
2019-04-07T00:11:36.915Z,95.05
2019-04-07T00:14:05.637Z,101.27
2019-04-07T00:16:33.994Z,94.37
2019-04-07T00:19:02.165Z,107.52
2019-04-07T00:21:30.408Z,104.07
2019-04-07T00:23:58.639Z,93.27
2019-04-07T00:26:26.857Z,99.00
2019-04-07T00:28:55.079Z,104.40
2019-04-07T00:31:23.975Z,96.37
2019-04-07T00:33:52.187Z,96.95
2019-04-07T00:36:20.596Z,99.03
2019-04-07T00:38:48.951Z,98.87
2019-04-07T00:41:17.240Z,101.07
2019-04-07T00:43:45.997Z,83.10
2019-04-07T00:46:14.370Z,100.92
2019-04-07T00:48:42.600Z,94.03
2019-04-07T00:51:11.184Z,89.97
2019-04-07T00:53:39.438Z,100.22
2019-04-07T00:56:08.263Z,93.62
2019-04-07T00:58:36.935Z,93.37
2019-04-07T01:01:06.360Z,93.70
2019-04-07T01:03:34.925Z,94.87
2019-04-07T01:06:03.410Z,86.97
2019-04-07T01:08:31.675Z,90.50
2019-04-07T01:10:59.880Z,86.30
2019-04-07T01:13:28.099Z,97.10
2019-04-07T01:15:57.139Z,93.52
2019-04-07T01:18:26.970Z,102.40
2019-04-07T01:20:55.391Z,103.75
2019-04-07T01:23:23.634Z,105.05
2019-04-07T01:25:52.252Z,105.95
2019-04-07T01:28:20.876Z,101.58
2019-04-07T01:30:49.160Z,87.72
2019-04-07T01:33:17.467Z,101.27
2019-04-07T01:35:48.675Z,82.65
2019-04-07T01:38:15.595Z,98.47
2019-04-07T01:40:45.469Z,94.45
2019-04-07T01:43:27.302Z,88.85
2019-04-07T01:45:57.234Z,94.50
2019-04-07T01:48:33.288Z,100.85
2019-04-07T01:51:09.123Z,92.33
2019-04-07T01:53:42.057Z,85.62
2019-04-07T01:56:11.915Z,99.55
2019-04-07T01:58:53.603Z,92.62
2019-04-07T02:01:33.886Z,99.25
2019-04-07T02:04:13.035Z,93.07
2019-04-07T02:06:46.354Z,98.15
2019-04-07T02:09:25.692Z,94.13
2019-04-07T02:12:12.613Z,96.30
2019-04-07T02:14:45.568Z,102.30
2019-04-07T02:17:17.881Z,97.33
2019-04-07T02:19:50.421Z,88.67
2019-04-07T02:22:26.349Z,97.50
2019-04-07T02:25:02.204Z,92.92
2019-04-07T02:27:44.678Z,94.80
2019-04-07T02:30:23.712Z,91.95
2019-04-07T02:32:56.089Z,78.52
2019-04-07T02:35:28.844Z,80.60
2019-04-07T02:38:00.543Z,93.47
2019-04-07T02:40:42.711Z,87.30
2019-04-07T02:43:15.934Z,66.55
2019-04-07T02:45:45.836Z,93.00
2019-04-07T02:48:32.088Z,88.07
2019-04-07T02:51:05.651Z,86.90
2019-04-07T02:53:43.560Z,76.22
2019-04-07T02:56:13.505Z,94.07
2019-04-07T02:58:44.305Z,86.37
2019-04-07T03:01:14.329Z,95.28
2019-04-07T03:03:46.370Z,103.47
2019-04-07T03:06:37.667Z,105.83
2019-04-07T03:09:09.634Z,91.70
2019-04-07T03:11:40.404Z,79.60
2019-04-07T03:14:14.236Z,90.70
2019-04-07T03:16:53.384Z,90.97
2019-04-07T03:19:29.877Z,90.07
2019-04-07T03:22:00.706Z,87.60
2019-04-07T03:24:40.447Z,96.37
2019-04-07T03:27:13.665Z,93.27
2019-04-07T03:30:00.738Z,97.97
2019-04-07T03:32:42.893Z,93.45
2019-04-07T03:35:12.646Z,86.42
2019-04-07T03:37:46.514Z,69.15
2019-04-07T03:40:26.841Z,89.30
2019-04-07T03:42:57.400Z,82.57
2019-04-07T03:45:30.498Z,84.05
2019-04-07T03:48:08.463Z,93.97
2019-04-07T03:50:41.187Z,88.60
2019-04-07T03:53:17.960Z,94.20
2019-04-07T03:56:04.276Z,94.92
2019-04-07T03:58:37.598Z,82.92
2019-04-07T04:01:25.676Z,100.80
2019-04-07T04:04:11.968Z,97.33
2019-04-07T04:06:51.510Z,89.50
2019-04-07T04:09:24.440Z,91.85
2019-04-07T04:11:54.319Z,80.05
2019-04-07T04:14:29.910Z,81.55
2019-04-07T04:16:58.191Z,83.10
2019-04-07T04:19:27.545Z,76.35
2019-04-07T04:21:56.380Z,87.65
2019-04-07T04:24:24.606Z,91.65
2019-04-07T04:26:53.779Z,99.92
2019-04-07T04:29:23.165Z,85.32
2019-04-07T04:31:52.614Z,95.15
2019-04-07T04:34:21.121Z,91.67
2019-04-07T04:36:50.246Z,82.45
2019-04-07T04:39:20.060Z,92.10
2019-04-07T04:41:49.010Z,83.60
2019-04-07T04:44:18.625Z,97.05
2019-04-07T04:46:47.406Z,88.82
2019-04-07T04:49:15.664Z,79.85
2019-04-07T04:51:44.402Z,90.97
2019-04-07T04:54:12.731Z,70.05
2019-04-07T04:56:41.437Z,92.50
2019-04-07T04:59:09.752Z,86.57
2019-04-07T05:01:38.117Z,70.87
2019-04-07T05:04:06.359Z,83.10
2019-04-07T05:06:34.570Z,87.80
2019-04-07T05:09:04.568Z,88.47
2019-04-07T05:11:32.827Z,92.75
2019-04-07T05:14:01.052Z,91.00
2019-04-07T05:16:29.334Z,84.17
2019-04-07T05:18:57.551Z,62.48
2019-04-07T05:21:26.192Z,80.17
2019-04-07T05:23:54.974Z,74.82
2019-04-07T05:28:55.035Z,74.87
2019-04-07T05:31:24.646Z,82.27
2019-04-07T05:33:53.886Z,81.40
2019-04-07T05:37:08.715Z,85.15
2019-04-07T05:39:37.253Z,71.07
2019-04-07T05:42:05.511Z,79.45
2019-04-07T05:44:34.368Z,73.33
2019-04-07T05:47:02.908Z,81.67
2019-04-07T05:49:31.402Z,86.80
2019-04-07T05:52:04.203Z,82.20
2019-04-07T05:54:29.657Z,88.05
2019-04-07T05:57:01.396Z,85.17
2019-04-07T05:59:28.909Z,85.12
2019-04-07T06:02:00.660Z,94.55
2019-04-07T06:04:27.130Z,91.12
2019-04-07T06:06:56.365Z,94.65
2019-04-07T06:09:25.135Z,91.85
2019-04-07T06:11:53.505Z,97.65
2019-04-07T06:14:21.734Z,92.17
2019-04-07T06:16:53.527Z,82.75
2019-04-07T06:19:26.061Z,85.20
2019-04-07T06:21:54.310Z,83.58
2019-04-07T06:24:22.701Z,101.25
2019-04-07T06:26:53.366Z,74.12
2019-04-07T06:29:24.683Z,79.85
2019-04-07T06:31:53.945Z,94.85
2019-04-07T06:34:22.643Z,88.07
2019-04-07T06:36:54.145Z,89.50
2019-04-07T06:39:21.527Z,82.17
2019-04-07T06:41:49.846Z,82.37
2019-04-07T06:44:20.917Z,85.00
2019-04-07T06:46:57.918Z,87.33
2019-04-07T06:49:27.847Z,94.80
2019-04-07T06:52:00.789Z,62.88
2019-04-07T06:54:37.720Z,90.55
2019-04-07T06:57:12.868Z,52.73
2019-04-07T06:59:45.957Z,66.70
2019-04-07T07:02:14.355Z,83.03
2019-04-07T07:04:53.943Z,54.35
2019-04-07T07:07:30.094Z,83.62
2019-04-07T07:10:01.001Z,68.07
2019-04-07T07:12:46.175Z,80.17
2019-04-07T07:15:25.575Z,89.40
2019-04-07T07:18:01.325Z,80.57
2019-04-07T07:20:33.964Z,92.85
2019-04-07T07:23:10.186Z,69.35
2019-04-07T07:25:39.853Z,78.90
2019-04-07T07:28:10.751Z,85.38
2019-04-07T07:30:38.259Z,76.15
2019-04-07T07:33:09.659Z,72.70
2019-04-07T07:35:36.450Z,62.78
2019-04-07T07:38:04.948Z,70.85
2019-04-07T07:40:34.946Z,71.12
2019-04-07T07:43:03.518Z,71.12
2019-04-07T07:45:31.788Z,61.85
2019-04-07T07:48:00.036Z,58.70
2019-04-07T07:50:28.475Z,61.23
2019-04-07T07:52:59.155Z,62.03
2019-04-07T07:55:28.525Z,59.65
2019-04-07T07:57:59.205Z,61.23
2019-04-07T08:00:41.565Z,57.85
2019-04-07T08:03:10.750Z,61.00
2019-04-07T08:05:39.718Z,65.55
2019-04-07T08:08:08.248Z,54.93
2019-04-07T08:10:37.559Z,52.30
2019-04-07T08:13:09.046Z,57.15
2019-04-07T08:15:37.395Z,50.95
2019-04-07T08:18:07.623Z,48.95
2019-04-07T08:21:12.475Z,46.58
2019-04-07T08:26:11.663Z,39.58
2019-04-07T08:28:40.324Z,40.52
2019-04-07T08:31:08.551Z,36.63
2019-04-07T08:33:37.430Z,33.53
2019-04-07T08:36:08.982Z,33.48
2019-04-07T08:38:38.399Z,37.28
2019-04-07T08:41:10.164Z,33.67
2019-04-07T08:43:37.319Z,33.48
2019-04-07T08:46:06.123Z,37.17
2019-04-07T08:48:34.559Z,36.23
2019-04-07T08:51:03.467Z,34.45
2019-04-07T08:53:31.919Z,36.80
2019-04-07T08:56:00.341Z,32.13
2019-04-07T08:58:30.081Z,33.65
2019-04-07T09:00:58.605Z,36.93
2019-04-07T09:03:26.799Z,31.17
2019-04-07T09:05:57.370Z,35.83
2019-04-07T09:08:25.015Z,32.05
2019-04-07T09:11:10.093Z,32.50
2019-04-07T09:13:41.409Z,28.95
2019-04-07T09:16:28.034Z,32.17
2019-04-07T09:19:03.837Z,27.80
2019-04-07T09:21:41.397Z,29.60
2019-04-07T09:24:10.133Z,31.80
2019-04-07T09:26:56.308Z,29.67
2019-04-07T09:29:42.022Z,29.72
2019-04-07T09:32:29.081Z,27.90
2019-04-07T09:35:02.059Z,28.47
2019-04-07T09:37:32.367Z,25.35
2019-04-07T09:40:04.403Z,29.45
2019-04-07T09:42:46.698Z,28.75
2019-04-07T09:45:25.446Z,30.02
2019-04-07T09:48:00.763Z,29.72
2019-04-07T09:50:33.654Z,27.32
2019-04-07T09:53:06.541Z,23.92
2019-04-07T09:55:36.781Z,25.60
2019-04-07T09:58:22.850Z,24.67
2019-04-07T10:01:06.925Z,23.83
2019-04-07T10:03:38.136Z,23.40
2019-04-07T10:06:10.774Z,20.08
2019-04-07T10:08:57.114Z,23.77
2019-04-07T10:11:30.275Z,20.45
2019-04-07T10:14:18.544Z,25.12
2019-04-07T10:16:48.482Z,21.75
2019-04-07T10:19:20.114Z,20.40
2019-04-07T10:21:56.075Z,21.42
2019-04-07T10:24:26.158Z,21.68
2019-04-07T10:27:12.530Z,19.62
2019-04-07T10:29:52.433Z,20.45
2019-04-07T10:32:39.569Z,18.48
2019-04-07T10:35:09.423Z,19.77
2019-04-07T10:37:51.018Z,20.88
2019-04-07T10:40:23.355Z,18.67
2019-04-07T10:43:02.011Z,18.33
2019-04-07T10:45:35.079Z,17.70
2019-04-07T10:48:24.472Z,21.00
2019-04-07T10:51:10.675Z,23.75
2019-04-07T10:53:47.193Z,19.17
2019-04-07T10:56:20.916Z,20.92
2019-04-07T10:58:51.799Z,23.67
2019-04-07T11:01:22.177Z,18.55
2019-04-07T11:03:53.996Z,16.93
2019-04-07T11:06:28.398Z,21.73
2019-04-07T11:09:01.035Z,17.37
2019-04-07T11:11:33.626Z,18.17
2019-04-07T11:14:12.295Z,19.35
2019-04-07T11:16:46.294Z,17.12
2019-04-07T11:19:17.697Z,19.30
2019-04-07T11:21:50.407Z,19.92
2019-04-07T11:24:32.267Z,17.92
2019-04-07T11:27:03.566Z,17.75
2019-04-07T11:29:38.543Z,17.12
2019-04-07T11:32:10.749Z,17.75
2019-04-07T11:34:43.605Z,16.50
2019-04-07T11:37:17.968Z,17.65
2019-04-07T11:42:23.020Z,20.92
2019-04-07T11:44:59.634Z,15.03
2019-04-07T11:47:32.933Z,14.85
2019-04-07T11:50:09.378Z,11.65
2019-04-07T11:52:45.248Z,12.68
2019-04-07T11:55:18.412Z,15.60
2019-04-07T11:58:10.734Z,11.63
2019-04-07T12:00:43.424Z,12.55
2019-04-07T12:03:26.036Z,10.23
2019-04-07T12:06:05.449Z,12.65
2019-04-07T12:08:44.599Z,10.13
2019-04-07T12:11:26.604Z,10.15
2019-04-07T12:14:15.981Z,11.90
2019-04-07T12:17:06.974Z,9.75
2019-04-07T12:19:34.219Z,7.40
2019-04-07T12:22:10.451Z,11.15
2019-04-07T12:27:28.409Z,10.55
2019-04-07T12:29:58.251Z,9.20
2019-04-07T12:32:40.281Z,6.40
2019-04-07T12:35:19.489Z,6.05
2019-04-07T12:37:50.217Z,9.58
2019-04-07T12:40:25.958Z,6.65
2019-04-07T12:43:12.120Z,5.83
2019-04-07T12:45:39.376Z,6.05
2019-04-07T12:48:11.929Z,7.20
2019-04-07T12:50:42.622Z,7.92
2019-04-07T12:53:19.689Z,5.50
2019-04-07T12:56:02.508Z,5.95
2019-04-07T12:58:49.046Z,5.97
2019-04-07T13:01:31.695Z,5.25
2019-04-07T13:04:17.916Z,5.47
2019-04-07T13:06:50.903Z,7.10
2019-04-07T13:09:32.341Z,5.17
2019-04-07T13:12:04.558Z,4.95
2019-04-07T13:14:47.521Z,6.87
2019-04-07T13:17:31.443Z,6.87
2019-04-07T13:19:58.800Z,4.72
2019-04-07T13:22:45.597Z,9.75
2019-04-07T13:25:21.596Z,5.00
2019-04-07T13:27:56.610Z,4.72
2019-04-07T13:30:32.622Z,4.85
2019-04-07T13:33:26.336Z,4.72
2019-04-07T13:35:53.600Z,4.90
2019-04-07T13:38:23.972Z,4.87
2019-04-07T13:41:03.017Z,5.45
2019-04-07T13:43:34.902Z,5.50
2019-04-07T13:46:17.517Z,5.60
2019-04-07T13:51:23.619Z,4.80
2019-04-07T13:53:53.531Z,4.58
2019-04-07T13:56:23.370Z,4.80
2019-04-07T13:58:53.240Z,4.83
2019-04-07T14:01:26.746Z,5.15
2019-04-07T14:04:14.580Z,5.90
2019-04-07T14:06:59.521Z,5.55
2019-04-07T14:09:45.209Z,4.58
2019-04-07T14:12:21.635Z,6.83
2019-04-07T14:14:57.051Z,4.55
2019-04-07T14:17:41.893Z,6.03
2019-04-07T14:20:26.980Z,7.55
2019-04-07T14:23:08.919Z,7.20
2019-04-07T14:25:49.399Z,5.90
2019-04-07T14:28:26.612Z,6.40
2019-04-07T14:31:11.261Z,5.65
2019-04-07T14:33:59.304Z,5.83
2019-04-07T14:36:38.800Z,5.42
2019-04-07T14:39:12.883Z,7.03
2019-04-07T14:41:47.218Z,6.03
2019-04-07T14:47:08.861Z,5.53
2019-04-07T14:49:38.740Z,5.65
2019-04-07T14:52:21.017Z,8.63
2019-04-07T14:55:06.420Z,4.60
2019-04-07T14:57:39.082Z,6.05
2019-04-07T15:00:14.138Z,5.62
2019-04-07T15:02:49.899Z,5.03
2019-04-07T15:05:25.253Z,4.97
2019-04-07T15:07:57.649Z,5.78
2019-04-07T15:10:25.441Z,6.05
2019-04-07T15:13:01.882Z,7.58
2019-04-07T15:15:30.388Z,7.87
2019-04-07T15:17:58.791Z,5.83
2019-04-07T15:20:27.135Z,8.03
2019-04-07T15:22:58.357Z,5.90
2019-04-07T15:25:27.582Z,6.58
2019-04-07T15:27:58.892Z,5.67
2019-04-07T15:30:26.588Z,5.20
2019-04-07T15:32:57.865Z,5.12
2019-04-07T15:35:24.750Z,6.75
2019-04-07T15:37:53.741Z,7.55
2019-04-07T15:40:23.445Z,5.40
2019-04-07T15:42:52.530Z,5.22
2019-04-07T15:45:21.619Z,7.30
2019-04-07T15:47:52.903Z,6.75
2019-04-07T15:50:29.282Z,6.65
2019-04-07T15:52:56.379Z,7.83
2019-04-07T15:55:37.122Z,8.20
2019-04-07T15:57:57.303Z,8.08
2019-04-07T16:00:25.858Z,10.15
2019-04-07T16:02:54.862Z,11.03
2019-04-07T16:05:23.174Z,16.80
2019-04-07T16:07:53.659Z,12.47
2019-04-07T16:10:23.453Z,10.23
2019-04-07T16:12:53.600Z,10.82
2019-04-07T16:15:21.603Z,9.78
2019-04-07T16:17:50.258Z,9.83
2019-04-07T16:20:23.312Z,7.75
2019-04-07T16:22:51.106Z,9.13
2019-04-07T16:25:18.522Z,7.97
2019-04-07T16:27:47.631Z,7.08
2019-04-07T16:30:18.960Z,8.35
2019-04-07T16:32:46.766Z,12.88
2019-04-07T16:35:16.577Z,10.60
2019-04-07T16:37:45.758Z,11.73
2019-04-07T16:40:14.732Z,17.42
2019-04-07T16:42:48.888Z,26.70
2019-04-07T16:45:16.429Z,71.57
2019-04-07T16:47:43.388Z,36.05
2019-04-07T16:50:12.209Z,36.70
2019-04-07T16:52:40.505Z,12.65
2019-04-07T16:55:28.286Z,13.60
2019-04-07T16:57:59.414Z,14.55
2019-04-07T17:00:28.014Z,13.50
2019-04-07T17:02:56.905Z,12.55
2019-04-07T17:05:26.755Z,14.10
2019-04-07T17:07:56.882Z,11.20
2019-04-07T17:10:32.395Z,12.15
2019-04-07T17:12:59.517Z,14.10
2019-04-07T17:15:27.378Z,11.95
2019-04-07T17:17:55.929Z,13.72
2019-04-07T17:20:27.874Z,15.43
2019-04-07T17:22:54.211Z,13.93
2019-04-07T17:25:22.897Z,13.55
2019-04-07T17:27:51.921Z,15.65
2019-04-07T17:30:23.201Z,16.07
2019-04-07T17:32:52.133Z,10.85
2019-04-07T17:35:21.333Z,11.30
2019-04-07T17:37:50.004Z,17.15
2019-04-07T17:40:20.111Z,12.53
2019-04-07T17:42:52.789Z,12.82
2019-04-07T17:45:23.587Z,13.58
2019-04-07T17:47:57.062Z,15.00
2019-04-07T17:50:44.253Z,14.23
2019-04-07T17:53:21.904Z,15.90
2019-04-07T17:55:51.466Z,12.18
2019-04-07T17:58:22.174Z,13.30
2019-04-07T18:00:52.130Z,15.32
2019-04-07T18:03:47.586Z,16.40
2019-04-07T18:06:31.290Z,14.45
2019-04-07T18:09:19.691Z,10.75
2019-04-07T18:11:55.026Z,12.23
2019-04-07T18:14:47.890Z,13.72
2019-04-07T18:17:17.752Z,12.88
2019-04-07T18:19:59.243Z,16.25
2019-04-07T18:22:45.077Z,14.45
2019-04-07T18:25:18.321Z,11.57
2019-04-07T18:27:53.319Z,13.38
2019-04-07T18:30:25.863Z,13.30
2019-04-07T18:33:02.733Z,20.05
2019-04-07T18:35:33.175Z,13.80
2019-04-07T18:38:03.167Z,15.83
2019-04-07T18:40:38.620Z,15.98
2019-04-07T18:43:23.504Z,15.98
2019-04-07T18:48:43.579Z,13.48
2019-04-07T18:51:23.158Z,14.05
2019-04-07T18:54:04.178Z,14.43
2019-04-07T18:56:50.659Z,15.05
2019-04-07T18:59:29.768Z,14.35
2019-04-07T19:02:16.689Z,17.85
2019-04-07T19:04:46.583Z,19.45
2019-04-07T19:07:17.282Z,13.95
2019-04-07T19:10:09.792Z,17.30
2019-04-07T19:12:31.809Z,16.67
2019-04-07T19:15:36.323Z,17.25
2019-04-07T19:18:16.362Z,16.23
2019-04-07T19:20:52.043Z,15.15
2019-04-07T19:23:28.539Z,18.02
2019-04-07T19:26:18.117Z,14.47
2019-04-07T19:28:48.608Z,16.55
2019-04-07T19:31:19.903Z,14.85
2019-04-07T19:33:56.649Z,16.23
2019-04-07T19:36:45.023Z,22.90
2019-04-07T19:39:12.418Z,14.28
2019-04-07T19:41:51.532Z,16.52
2019-04-07T19:44:41.297Z,13.75
2019-04-07T19:47:09.162Z,17.80
2019-04-07T19:49:39.322Z,19.30
2019-04-07T19:52:09.791Z,19.52
2019-04-07T19:54:47.119Z,18.20
2019-04-07T19:57:13.788Z,19.87
2019-04-07T19:59:53.580Z,19.07
2019-04-07T20:02:35.975Z,18.27
2019-04-07T20:05:08.885Z,15.95
2019-04-07T20:07:39.634Z,21.07
2019-04-07T20:10:28.214Z,16.67
2019-04-07T20:13:05.530Z,16.87
2019-04-07T20:15:40.170Z,15.00
2019-04-07T20:18:10.351Z,21.12
2019-04-07T20:20:43.268Z,17.02
2019-04-07T20:23:32.856Z,20.10
2019-04-07T20:26:08.391Z,16.30
2019-04-07T20:28:45.051Z,18.48
2019-04-07T20:31:31.252Z,20.15
2019-04-07T20:34:07.664Z,27.27
2019-04-07T20:36:40.908Z,24.70
2019-04-07T20:39:11.491Z,19.27
2019-04-07T20:41:58.764Z,21.10
2019-04-07T20:44:59.152Z,19.75
2019-04-07T20:47:38.202Z,21.93
2019-04-07T20:50:24.179Z,21.52
2019-04-07T20:53:16.519Z,20.37
2019-04-07T20:55:42.812Z,22.30
2019-04-07T20:58:22.095Z,21.62
2019-04-07T21:00:58.349Z,18.87
2019-04-07T21:03:36.951Z,17.85
2019-04-07T21:06:16.811Z,21.62
2019-04-07T21:09:03.772Z,18.70
2019-04-07T21:11:49.956Z,19.67
2019-04-07T21:14:20.758Z,20.10
2019-04-07T21:16:59.394Z,23.38
2019-04-07T21:19:36.515Z,17.05
2019-04-07T21:22:22.825Z,22.70
2019-04-07T21:25:11.440Z,19.75
2019-04-07T21:27:44.412Z,24.30
2019-04-07T21:30:20.734Z,20.43
2019-04-07T21:33:07.821Z,20.60
2019-04-07T21:35:52.650Z,16.52
2019-04-07T21:38:24.500Z,24.12
2019-04-07T21:40:54.167Z,22.00
2019-04-07T21:43:36.091Z,24.87
2019-04-07T21:46:11.690Z,25.48
2019-04-07T21:49:00.341Z,22.82
2019-04-07T21:51:33.233Z,22.67
2019-04-07T21:54:04.419Z,22.90
2019-04-07T21:56:52.046Z,20.75
2019-04-07T21:59:37.435Z,22.17
2019-04-07T22:02:11.405Z,23.98
2019-04-07T22:04:50.672Z,22.55
2019-04-07T22:07:35.524Z,22.27
2019-04-07T22:10:10.298Z,21.62
2019-04-07T22:12:40.776Z,22.87
2019-04-07T22:15:13.456Z,25.92
2019-04-07T22:17:39.715Z,23.25
2019-04-07T22:20:08.848Z,27.77
2019-04-07T22:22:37.090Z,23.22
2019-04-07T22:25:08.661Z,24.65
2019-04-07T22:27:36.969Z,37.13
2019-04-07T22:30:09.727Z,40.20
2019-04-07T22:32:38.504Z,39.20
2019-04-07T22:35:06.993Z,47.27
2019-04-07T22:37:35.685Z,54.35
2019-04-07T22:40:19.220Z,59.13
2019-04-07T22:42:48.833Z,60.75
2019-04-07T22:45:17.193Z,56.77
2019-04-07T22:47:46.696Z,58.33
2019-04-07T22:50:15.084Z,61.10
2019-04-07T22:52:47.313Z,48.00
2019-04-07T22:55:13.273Z,61.75
2019-04-07T22:57:41.524Z,65.03
2019-04-07T23:00:11.395Z,59.03
2019-04-07T23:02:40.219Z,69.40
2019-04-07T23:05:09.284Z,68.83
2019-04-07T23:07:37.642Z,72.47
2019-04-07T23:10:06.080Z,56.65
2019-04-07T23:12:34.288Z,72.30
2019-04-07T23:15:03.537Z,69.62
2019-04-07T23:17:32.220Z,70.90
2019-04-07T23:20:00.519Z,76.72
2019-04-07T23:22:29.823Z,72.60
2019-04-07T23:24:58.247Z,78.42
2019-04-07T23:27:26.508Z,75.78
2019-04-07T23:29:54.988Z,76.65
2019-04-07T23:32:24.060Z,70.72
2019-04-07T23:34:52.338Z,69.10
2019-04-07T23:37:20.563Z,71.42
2019-04-07T23:39:49.677Z,62.62
2019-04-07T23:42:18.052Z,59.08
2019-04-07T23:44:46.285Z,73.47
2019-04-07T23:47:15.269Z,71.07
2019-04-07T23:49:43.608Z,73.70
2019-04-07T23:52:11.840Z,69.70
2019-04-07T23:54:40.065Z,57.27
2019-04-07T23:57:08.312Z,67.97
2019-04-07T23:59:36.510Z,69.97
